createdAt,value
2022-09-13T00:00:50.775Z,19.20
2022-09-13T00:03:19.219Z,19.20
2022-09-13T00:05:48.007Z,19.20
2022-09-13T00:08:17.491Z,19.20
2022-09-13T00:10:46.584Z,19.20
2022-09-13T00:13:17.994Z,19.20
2022-09-13T00:15:50.396Z,19.20
2022-09-13T00:18:20.006Z,19.10
2022-09-13T00:20:48.054Z,19.10
2022-09-13T00:23:16.221Z,19.00
2022-09-13T00:25:44.355Z,19.00
2022-09-13T00:28:12.724Z,18.90
2022-09-13T00:30:42.080Z,18.90
2022-09-13T00:33:10.281Z,18.80
2022-09-13T00:35:38.359Z,18.80
2022-09-13T00:38:07.111Z,18.80
2022-09-13T00:40:38.877Z,18.80
2022-09-13T00:43:13.336Z,18.80
2022-09-13T00:45:43.002Z,18.90
2022-09-13T00:48:21.453Z,18.90
2022-09-13T00:50:53.969Z,18.90
2022-09-13T00:53:26.854Z,18.80
2022-09-13T00:55:58.826Z,18.90
2022-09-13T00:58:32.461Z,18.90
2022-09-13T01:01:03.994Z,18.90
2022-09-13T01:03:36.816Z,18.90
2022-09-13T01:06:09.750Z,18.90
2022-09-13T01:08:39.244Z,18.80
2022-09-13T01:11:11.916Z,18.70
2022-09-13T01:13:40.591Z,18.70
2022-09-13T01:16:10.271Z,18.60
2022-09-13T01:18:38.306Z,18.60
2022-09-13T01:21:43.735Z,18.60
2022-09-13T01:24:32.746Z,18.60
2022-09-13T01:27:31.131Z,18.60
2022-09-13T01:30:19.043Z,18.60
2022-09-13T01:33:11.995Z,18.60
2022-09-13T01:35:51.761Z,18.60
2022-09-13T01:38:38.092Z,18.60
2022-09-13T01:41:17.674Z,18.60
2022-09-13T01:43:57.563Z,18.60
2022-09-13T01:46:31.858Z,18.60
2022-09-13T01:49:05.845Z,18.60
2022-09-13T01:51:37.652Z,18.60
2022-09-13T01:54:15.792Z,18.70
2022-09-13T01:56:52.590Z,18.60
2022-09-13T01:59:28.587Z,18.70
2022-09-13T02:02:02.215Z,18.70
2022-09-13T02:04:38.073Z,18.70
2022-09-13T02:07:11.957Z,18.70
2022-09-13T02:09:44.027Z,18.70
2022-09-13T02:12:17.966Z,18.80
2022-09-13T02:14:52.257Z,18.70
2022-09-13T02:17:24.480Z,18.80
2022-09-13T02:19:56.053Z,18.80
2022-09-13T02:22:31.935Z,18.80
2022-09-13T02:25:03.970Z,18.80
2022-09-13T02:27:35.804Z,18.80
2022-09-13T02:30:06.740Z,18.80
2022-09-13T02:32:40.295Z,18.80
2022-09-13T02:35:13.415Z,18.80
2022-09-13T02:37:46.055Z,18.80
2022-09-13T02:40:22.666Z,18.80
2022-09-13T02:42:57.034Z,18.70
2022-09-13T02:45:30.779Z,18.70
2022-09-13T02:48:04.882Z,18.70
2022-09-13T02:50:47.369Z,18.70
2022-09-13T02:53:26.592Z,18.70
2022-09-13T02:56:00.134Z,18.80
2022-09-13T02:58:35.076Z,18.80
2022-09-13T03:01:03.191Z,18.80
2022-09-13T03:03:32.675Z,18.80
2022-09-13T03:06:01.855Z,18.80
2022-09-13T03:08:30.870Z,18.80
2022-09-13T03:11:06.626Z,18.80
2022-09-13T03:13:43.887Z,18.80
2022-09-13T03:16:35.574Z,18.80
2022-09-13T03:19:18.874Z,18.80
2022-09-13T03:22:03.662Z,18.80
2022-09-13T03:24:43.971Z,18.80
2022-09-13T03:27:20.630Z,18.80
2022-09-13T03:29:57.399Z,18.80
2022-09-13T03:32:36.206Z,18.80
2022-09-13T03:35:15.184Z,18.80
2022-09-13T03:37:53.495Z,18.80
2022-09-13T03:40:27.838Z,18.80
2022-09-13T03:43:02.090Z,18.80
2022-09-13T03:45:35.234Z,18.80
2022-09-13T03:48:05.523Z,18.80
2022-09-13T03:50:35.426Z,18.80
2022-09-13T03:53:09.951Z,18.80
2022-09-13T03:55:41.411Z,18.70
2022-09-13T03:58:13.080Z,18.70
2022-09-13T04:00:41.522Z,18.70
2022-09-13T04:03:10.023Z,18.70
2022-09-13T04:05:39.881Z,18.80
2022-09-13T04:08:08.758Z,18.70
2022-09-13T04:10:37.564Z,18.70
2022-09-13T04:13:05.852Z,18.80
2022-09-13T04:15:33.936Z,18.80
2022-09-13T04:18:02.029Z,18.70
2022-09-13T04:20:30.060Z,18.70
2022-09-13T04:22:59.391Z,18.70
2022-09-13T04:25:27.522Z,18.70
2022-09-13T04:27:56.477Z,18.80
2022-09-13T04:30:24.855Z,18.80
2022-09-13T04:32:52.955Z,18.80
2022-09-13T04:35:21.052Z,18.80
2022-09-13T04:37:49.037Z,18.80
2022-09-13T04:40:18.571Z,18.80
2022-09-13T04:42:46.566Z,18.80
2022-09-13T04:45:14.545Z,18.80
2022-09-13T04:47:42.491Z,18.80
2022-09-13T04:50:10.876Z,18.90
2022-09-13T04:52:38.919Z,18.90
2022-09-13T04:55:07.902Z,18.90
2022-09-13T04:57:37.230Z,18.90
2022-09-13T05:00:06.343Z,18.90
2022-09-13T05:02:34.484Z,18.90
2022-09-13T05:05:02.500Z,18.80
2022-09-13T05:07:30.493Z,18.80
2022-09-13T05:09:58.467Z,18.80
2022-09-13T05:12:26.391Z,18.90
2022-09-13T05:14:55.698Z,18.90
2022-09-13T05:17:23.698Z,18.90
2022-09-13T05:19:51.624Z,18.90
2022-09-13T05:22:19.570Z,18.90
2022-09-13T05:24:47.586Z,18.90
2022-09-13T05:27:15.590Z,19.00
2022-09-13T05:29:43.719Z,19.10
2022-09-13T05:32:13.116Z,19.10
2022-09-13T05:34:41.104Z,19.20
2022-09-13T05:37:09.103Z,19.30
2022-09-13T05:40:00.404Z,19.20
2022-09-13T05:42:25.324Z,19.30
2022-09-13T05:44:53.354Z,19.30
2022-09-13T05:47:23.001Z,19.40
2022-09-13T05:50:09.316Z,19.40
2022-09-13T05:52:38.162Z,19.40
2022-09-13T05:55:06.631Z,19.40
2022-09-13T05:57:34.664Z,19.40
2022-09-13T06:00:03.005Z,19.40
2022-09-13T06:02:42.253Z,19.40
2022-09-13T06:05:11.314Z,19.50
2022-09-13T06:07:42.405Z,19.50
2022-09-13T06:10:11.482Z,19.40
2022-09-13T06:12:39.428Z,19.30
2022-09-13T06:15:09.143Z,19.30
2022-09-13T06:17:37.189Z,19.20
2022-09-13T06:20:07.508Z,19.30
2022-09-13T06:22:35.643Z,19.30
2022-09-13T06:25:03.966Z,19.30
2022-09-13T06:27:32.115Z,19.30
2022-09-13T06:30:00.152Z,19.30
2022-09-13T06:32:28.172Z,19.20
2022-09-13T06:34:56.183Z,19.30
2022-09-13T06:37:25.802Z,19.30
2022-09-13T06:39:53.881Z,19.30
2022-09-13T06:42:22.071Z,19.30
2022-09-13T06:44:50.945Z,19.30
2022-09-13T06:47:18.950Z,19.40
2022-09-13T06:49:47.062Z,19.40
2022-09-13T06:52:15.053Z,19.40
2022-09-13T06:54:44.617Z,19.40
2022-09-13T06:57:12.657Z,19.50
2022-09-13T06:59:40.633Z,19.50
2022-09-13T07:02:08.748Z,19.50
2022-09-13T07:04:36.951Z,19.60
2022-09-13T07:07:04.923Z,19.60
2022-09-13T07:09:34.259Z,19.60
2022-09-13T07:12:06.313Z,19.70
2022-09-13T07:14:34.323Z,19.70
2022-09-13T07:17:02.787Z,19.70
2022-09-13T07:19:31.383Z,19.70
2022-09-13T07:21:59.791Z,19.70
2022-09-13T07:24:28.147Z,19.80
2022-09-13T07:26:56.218Z,19.80
2022-09-13T07:29:25.592Z,19.90
2022-09-13T07:31:55.388Z,19.90
2022-09-13T07:34:25.138Z,20.00
2022-09-13T07:36:53.607Z,20.00
2022-09-13T07:39:23.019Z,20.10
2022-09-13T07:41:52.002Z,20.10
2022-09-13T07:44:20.209Z,20.10
2022-09-13T07:46:49.647Z,20.20
2022-09-13T07:49:19.734Z,20.20
2022-09-13T07:51:51.061Z,20.20
2022-09-13T07:54:20.227Z,20.30
2022-09-13T07:56:50.198Z,20.40
2022-09-13T07:59:18.946Z,20.40
2022-09-13T08:01:49.881Z,20.40
2022-09-13T08:04:20.022Z,20.50
2022-09-13T08:06:48.888Z,20.50
2022-09-13T08:09:17.437Z,20.50
2022-09-13T08:11:47.512Z,20.60
2022-09-13T08:14:17.708Z,20.60
2022-09-13T08:16:46.292Z,20.70
2022-09-13T08:19:17.944Z,20.80
2022-09-13T08:21:46.887Z,20.90
2022-09-13T08:24:16.610Z,20.90
2022-09-13T08:26:44.843Z,21.00
2022-09-13T08:29:13.982Z,21.00
2022-09-13T08:31:42.454Z,21.10
2022-09-13T08:34:12.922Z,21.10
2022-09-13T08:36:42.454Z,21.20
2022-09-13T08:39:12.904Z,21.30
2022-09-13T08:42:02.487Z,21.30
2022-09-13T08:44:34.738Z,21.40
2022-09-13T08:47:22.582Z,21.50
2022-09-13T08:49:56.840Z,21.60
2022-09-13T08:52:32.618Z,21.60
2022-09-13T08:55:04.624Z,21.70
2022-09-13T08:57:40.490Z,21.70
2022-09-13T09:00:20.777Z,21.70
2022-09-13T09:03:03.916Z,21.80
2022-09-13T09:05:33.823Z,21.90
2022-09-13T09:08:07.945Z,22.00
2022-09-13T09:10:42.531Z,22.00
2022-09-13T09:13:22.625Z,22.10
2022-09-13T09:15:56.453Z,22.10
2022-09-13T09:18:26.852Z,22.20
2022-09-13T09:20:57.509Z,22.30
2022-09-13T09:23:32.704Z,22.30
2022-09-13T09:26:15.721Z,22.30
2022-09-13T09:28:45.819Z,22.30
2022-09-13T09:31:24.177Z,22.40
2022-09-13T09:34:02.080Z,22.40
2022-09-13T09:36:38.681Z,22.40
2022-09-13T09:39:13.037Z,22.50
2022-09-13T09:41:41.391Z,22.50
2022-09-13T09:44:20.753Z,22.50
2022-09-13T09:46:52.970Z,22.50
2022-09-13T09:49:42.796Z,22.60
2022-09-13T09:52:14.598Z,22.60
2022-09-13T09:54:44.656Z,22.50
2022-09-13T09:57:14.274Z,22.60
2022-09-13T09:59:42.298Z,22.70
2022-09-13T10:02:18.015Z,22.70
2022-09-13T10:04:57.362Z,22.80
2022-09-13T10:07:32.381Z,22.80
2022-09-13T10:10:06.435Z,22.90
2022-09-13T10:12:45.977Z,22.90
2022-09-13T10:15:19.414Z,23.10
2022-09-13T10:18:39.961Z,23.20
2022-09-13T10:21:09.103Z,23.30
2022-09-13T10:23:39.746Z,23.40
2022-09-13T10:26:14.879Z,23.50
2022-09-13T10:28:48.063Z,23.60
2022-09-13T10:31:17.812Z,23.60
2022-09-13T10:33:58.201Z,23.60
2022-09-13T10:36:51.207Z,23.70
2022-09-13T10:39:21.350Z,23.80
2022-09-13T10:41:55.680Z,23.90
2022-09-13T10:44:33.138Z,23.80
2022-09-13T10:47:04.784Z,23.80
2022-09-13T10:49:40.669Z,23.90
2022-09-13T10:52:35.573Z,23.80
2022-09-13T10:55:27.168Z,23.80
2022-09-13T10:58:13.600Z,23.90
2022-09-13T11:01:05.211Z,23.90
2022-09-13T11:03:57.506Z,23.90
2022-09-13T11:06:36.879Z,24.00
2022-09-13T11:09:14.494Z,24.10
2022-09-13T11:11:49.666Z,24.10
2022-09-13T11:14:37.367Z,24.20
2022-09-13T11:17:17.060Z,24.20
2022-09-13T11:20:13.268Z,24.30
2022-09-13T11:23:04.672Z,24.40
2022-09-13T11:25:59.910Z,24.40
2022-09-13T11:28:40.789Z,24.50
2022-09-13T11:31:25.307Z,24.60
2022-09-13T11:34:06.180Z,24.70
2022-09-13T11:36:58.071Z,24.70
2022-09-13T11:39:33.382Z,24.70
2022-09-13T11:42:09.382Z,24.60
2022-09-13T11:45:03.023Z,24.50
2022-09-13T11:47:43.007Z,24.50
2022-09-13T11:50:28.362Z,24.60
2022-09-13T11:53:07.549Z,24.70
2022-09-13T11:55:40.651Z,24.70
2022-09-13T12:02:59.871Z,24.90
2022-09-13T12:05:32.467Z,24.90
2022-09-13T12:08:05.728Z,24.80
2022-09-13T12:10:39.667Z,25.00
2022-09-13T12:13:15.020Z,25.10
2022-09-13T12:15:45.556Z,25.20
2022-09-13T12:18:19.146Z,25.30
2022-09-13T12:20:51.542Z,25.20
2022-09-13T12:23:26.921Z,25.20
2022-09-13T12:26:01.403Z,25.30
2022-09-13T12:28:35.836Z,25.30
2022-09-13T12:31:10.662Z,25.30
2022-09-13T12:33:47.550Z,25.30
2022-09-13T12:36:41.863Z,25.30
2022-09-13T12:39:46.261Z,25.50
2022-09-13T12:42:45.324Z,25.70
2022-09-13T12:45:39.097Z,25.90
2022-09-13T12:48:30.003Z,25.90
2022-09-13T12:51:10.117Z,25.90
2022-09-13T12:54:12.794Z,26.00
2022-09-13T12:56:59.154Z,26.20
2022-09-13T12:59:53.957Z,26.60
2022-09-13T13:02:32.843Z,26.60
2022-09-13T13:05:04.986Z,26.60
2022-09-13T13:07:37.903Z,26.60
2022-09-13T13:10:07.417Z,26.50
2022-09-13T13:12:38.670Z,26.60
2022-09-13T13:15:08.423Z,26.60
2022-09-13T13:17:45.617Z,26.80
2022-09-13T13:20:42.567Z,26.90
2022-09-13T13:23:23.438Z,26.90
2022-09-13T13:26:10.449Z,27.00
2022-09-13T13:29:12.961Z,27.10
2022-09-13T13:31:47.093Z,27.20
2022-09-13T13:34:31.737Z,27.20
2022-09-13T13:37:05.451Z,27.10
2022-09-13T13:39:38.410Z,26.90
2022-09-13T13:42:14.053Z,26.70
2022-09-13T13:45:17.846Z,26.70
2022-09-13T13:48:08.147Z,26.60
2022-09-13T13:50:39.312Z,26.60
2022-09-13T13:53:25.825Z,26.60
2022-09-13T13:56:16.178Z,26.50
2022-09-13T13:58:50.399Z,26.60
2022-09-13T14:01:23.471Z,26.80
2022-09-13T14:04:17.791Z,27.10
2022-09-13T14:06:54.399Z,27.60
2022-09-13T14:09:35.095Z,28.00
2022-09-13T14:12:17.650Z,28.40
2022-09-13T14:15:21.606Z,28.70
2022-09-13T14:18:31.980Z,28.60
2022-09-13T14:21:01.488Z,28.40
2022-09-13T14:23:30.274Z,28.40
2022-09-13T14:26:00.935Z,28.40
2022-09-13T14:28:30.692Z,28.80
2022-09-13T14:31:00.299Z,29.40
2022-09-13T14:33:35.126Z,29.80
2022-09-13T14:36:06.802Z,30.20
2022-09-13T14:38:36.460Z,31.00
2022-09-13T14:41:14.915Z,31.50
2022-09-13T14:43:45.459Z,31.70
2022-09-13T14:46:18.889Z,32.00
2022-09-13T14:48:51.630Z,32.20
2022-09-13T14:51:24.832Z,32.00
2022-09-13T14:53:56.425Z,32.30
2022-09-13T14:56:31.425Z,32.70
2022-09-13T14:59:04.489Z,33.30
2022-09-13T15:01:34.404Z,34.30
2022-09-13T15:04:04.892Z,33.60
2022-09-13T15:06:35.574Z,33.20
2022-09-13T15:09:18.694Z,33.10
2022-09-13T15:11:58.535Z,32.10
2022-09-13T15:14:31.997Z,30.90
2022-09-13T15:17:02.378Z,29.90
2022-09-13T15:19:41.774Z,29.20
2022-09-13T15:22:20.318Z,28.60
2022-09-13T15:24:51.494Z,28.00
2022-09-13T15:27:28.441Z,27.80
2022-09-13T15:30:00.163Z,27.50
2022-09-13T15:32:34.190Z,27.30
2022-09-13T15:35:03.567Z,27.20
2022-09-13T15:37:35.830Z,27.10
2022-09-13T15:40:21.492Z,27.10
2022-09-13T15:42:51.486Z,26.90
2022-09-13T15:45:23.254Z,26.80
2022-09-13T15:47:53.520Z,26.70
2022-09-13T15:50:26.862Z,26.60
2022-09-13T15:52:55.891Z,26.50
2022-09-13T15:55:27.839Z,26.50
2022-09-13T15:57:56.978Z,26.40
2022-09-13T16:00:29.727Z,26.30
2022-09-13T16:02:58.072Z,26.20
2022-09-13T16:05:26.176Z,26.20
2022-09-13T16:07:58.796Z,26.10
2022-09-13T16:10:26.864Z,26.10
2022-09-13T16:12:55.338Z,26.10
2022-09-13T16:15:23.613Z,26.00
2022-09-13T16:17:53.083Z,25.90
2022-09-13T16:20:21.471Z,25.90
2022-09-13T16:22:49.564Z,25.80
2022-09-13T16:25:18.008Z,25.80
2022-09-13T16:27:46.633Z,25.80
2022-09-13T16:30:17.594Z,25.70
2022-09-13T16:32:45.854Z,25.70
2022-09-13T16:35:17.117Z,25.60
2022-09-13T16:37:45.488Z,25.50
2022-09-13T16:40:14.194Z,25.50
2022-09-13T16:42:42.367Z,25.50
2022-09-13T16:45:11.894Z,25.40
2022-09-13T16:47:41.175Z,25.40
2022-09-13T16:50:10.313Z,25.30
2022-09-13T16:52:40.103Z,25.30
2022-09-13T16:55:09.255Z,25.30
2022-09-13T16:57:37.380Z,25.30
2022-09-13T17:00:10.376Z,25.20
2022-09-13T17:02:38.786Z,25.20
2022-09-13T17:05:08.435Z,25.10
2022-09-13T17:07:38.811Z,25.10
2022-09-13T17:10:08.427Z,25.00
2022-09-13T17:12:36.437Z,25.00
2022-09-13T17:15:05.289Z,25.00
2022-09-13T17:17:36.091Z,25.00
2022-09-13T17:20:07.779Z,24.90
2022-09-13T17:22:35.989Z,24.90
2022-09-13T17:25:07.597Z,24.90
2022-09-13T17:27:36.369Z,24.80
2022-09-13T17:30:06.723Z,24.80
2022-09-13T17:32:34.810Z,24.80
2022-09-13T17:35:02.988Z,24.80
2022-09-13T17:37:31.182Z,24.80
2022-09-13T17:39:59.382Z,24.80
2022-09-13T17:42:29.014Z,24.70
2022-09-13T17:44:57.144Z,24.70
2022-09-13T17:47:25.339Z,24.60
2022-09-13T17:49:53.819Z,24.50
2022-09-13T17:52:21.990Z,24.40
2022-09-13T17:54:50.224Z,24.30
2022-09-13T17:57:18.234Z,24.20
2022-09-13T17:59:47.930Z,24.10
2022-09-13T18:02:16.225Z,24.00
2022-09-13T18:04:44.301Z,24.00
2022-09-13T18:07:12.674Z,23.90
2022-09-13T18:09:41.389Z,23.90
2022-09-13T18:12:09.496Z,23.80
2022-09-13T18:14:37.520Z,23.70
2022-09-13T18:17:12.946Z,23.60
2022-09-13T18:19:46.385Z,23.60
2022-09-13T18:22:15.199Z,23.60
2022-09-13T18:24:43.541Z,23.40
2022-09-13T18:27:11.827Z,23.40
2022-09-13T18:29:40.105Z,23.30
2022-09-13T18:32:09.507Z,23.20
2022-09-13T18:34:37.541Z,23.10
2022-09-13T18:37:05.647Z,23.00
2022-09-13T18:39:33.783Z,22.90
2022-09-13T18:42:02.145Z,22.80
2022-09-13T18:44:30.824Z,22.80
2022-09-13T18:47:00.555Z,22.70
2022-09-13T18:49:29.924Z,22.70
2022-09-13T18:51:58.597Z,22.70
2022-09-13T18:54:26.862Z,22.60
2022-09-13T18:56:55.801Z,22.60
2022-09-13T18:59:24.435Z,22.50
2022-09-13T19:01:53.282Z,22.40
2022-09-13T19:04:22.311Z,22.40
2022-09-13T19:06:53.462Z,22.50
2022-09-13T19:09:22.993Z,22.40
2022-09-13T19:11:52.635Z,22.40
2022-09-13T19:14:23.127Z,22.40
2022-09-13T19:16:52.311Z,22.40
2022-09-13T19:19:20.632Z,22.30
2022-09-13T19:21:49.061Z,22.20
2022-09-13T19:24:19.970Z,22.20
2022-09-13T19:26:50.658Z,22.20
2022-09-13T19:29:22.652Z,22.10
2022-09-13T19:31:52.324Z,22.10
2022-09-13T19:34:22.020Z,22.10
2022-09-13T19:36:53.542Z,22.00
2022-09-13T19:39:27.034Z,22.00
2022-09-13T19:41:57.555Z,22.00
2022-09-13T19:44:25.914Z,21.90
2022-09-13T19:47:23.845Z,21.90
2022-09-13T19:49:43.036Z,21.80
2022-09-13T19:52:11.206Z,21.80
2022-09-13T19:54:41.059Z,21.80
2022-09-13T19:57:09.898Z,21.80
2022-09-13T19:59:38.067Z,21.80
2022-09-13T20:02:07.242Z,21.80
2022-09-13T20:04:35.819Z,21.80
2022-09-13T20:07:04.249Z,21.80
2022-09-13T20:09:32.592Z,21.80
2022-09-13T20:12:02.070Z,21.80
2022-09-13T20:14:31.934Z,21.80
2022-09-13T20:17:02.566Z,21.80
2022-09-13T20:19:50.089Z,21.70
2022-09-13T20:22:18.857Z,21.70
2022-09-13T20:24:47.256Z,21.70
2022-09-13T20:27:17.244Z,21.70
2022-09-13T20:29:48.382Z,21.70
2022-09-13T20:32:16.962Z,21.70
2022-09-13T20:34:45.917Z,21.70
2022-09-13T20:37:19.177Z,21.70
2022-09-13T20:39:50.853Z,21.60
2022-09-13T20:42:20.865Z,21.60
2022-09-13T20:44:49.385Z,21.60
2022-09-13T20:47:17.926Z,21.60
2022-09-13T20:49:46.269Z,21.60
2022-09-13T20:52:14.502Z,21.50
2022-09-13T20:54:43.224Z,21.40
2022-09-13T20:57:11.747Z,21.40
2022-09-13T20:59:41.493Z,21.40
2022-09-13T21:02:10.924Z,21.30
2022-09-13T21:04:39.229Z,21.20
2022-09-13T21:07:24.658Z,21.20
2022-09-13T21:09:53.154Z,21.20
2022-09-13T21:12:21.479Z,21.20
2022-09-13T21:14:51.154Z,21.20
2022-09-13T21:17:20.294Z,21.20
2022-09-13T21:19:49.085Z,21.10
2022-09-13T21:22:17.449Z,21.10
2022-09-13T21:24:47.744Z,21.10
2022-09-13T21:27:16.300Z,21.10
2022-09-13T21:29:44.634Z,21.10
2022-09-13T21:32:14.932Z,21.10
2022-09-13T21:34:43.825Z,21.00
2022-09-13T21:37:12.883Z,21.00
2022-09-13T21:39:41.506Z,21.00
2022-09-13T21:42:09.898Z,21.00
2022-09-13T21:44:38.672Z,20.90
2022-09-13T21:47:07.600Z,20.90
2022-09-13T21:49:37.834Z,20.80
2022-09-13T21:52:06.204Z,20.80
2022-09-13T21:54:34.221Z,20.80
2022-09-13T21:57:02.492Z,20.80
2022-09-13T21:59:30.745Z,20.80
2022-09-13T22:01:59.109Z,20.80
2022-09-13T22:04:27.779Z,20.80
2022-09-13T22:06:57.410Z,20.80
2022-09-13T22:09:27.626Z,20.80
2022-09-13T22:11:56.564Z,20.80
2022-09-13T22:14:24.897Z,20.80
2022-09-13T22:16:53.683Z,20.80
2022-09-13T22:19:24.404Z,20.80
2022-09-13T22:21:55.801Z,20.90
2022-09-13T22:24:27.532Z,20.80
2022-09-13T22:26:58.144Z,20.80
2022-09-13T22:29:26.320Z,20.80
2022-09-13T22:31:54.774Z,20.80
2022-09-13T22:34:25.112Z,20.70
2022-09-13T22:36:55.745Z,20.70
2022-09-13T22:39:25.278Z,20.60
2022-09-13T22:41:53.985Z,20.60
2022-09-13T22:44:22.091Z,20.60
2022-09-13T22:46:50.427Z,20.60
2022-09-13T22:49:20.012Z,20.50
2022-09-13T22:51:49.612Z,20.50
2022-09-13T22:54:19.362Z,20.50
2022-09-13T22:56:49.060Z,20.50
2022-09-13T22:59:23.309Z,20.50
2022-09-13T23:01:51.768Z,20.40
2022-09-13T23:04:20.343Z,20.40
2022-09-13T23:06:49.019Z,20.40
2022-09-13T23:09:19.224Z,20.30
2022-09-13T23:11:49.455Z,20.30
2022-09-13T23:14:19.925Z,20.30
2022-09-13T23:16:51.245Z,20.30
2022-09-13T23:19:22.018Z,20.30
2022-09-13T23:21:50.656Z,20.30
2022-09-13T23:24:19.830Z,20.30
2022-09-13T23:26:49.938Z,20.20
2022-09-13T23:29:23.175Z,20.20
2022-09-13T23:31:52.580Z,20.20
2022-09-13T23:34:21.055Z,20.20
2022-09-13T23:36:49.426Z,20.20
2022-09-13T23:39:19.623Z,20.20
2022-09-13T23:41:51.017Z,20.20
2022-09-13T23:44:19.500Z,20.20
2022-09-13T23:46:47.739Z,20.20
2022-09-13T23:49:16.342Z,20.20
2022-09-13T23:51:44.688Z,20.10
2022-09-13T23:54:14.091Z,20.10
2022-09-13T23:56:42.511Z,20.20
2022-09-13T23:59:13.730Z,20.10
